createdAt,value
2019-01-10T00:01:13.050Z,-0.70
2019-01-10T00:03:44.198Z,-0.70
2019-01-10T00:06:13.465Z,-0.70
2019-01-10T00:08:42.945Z,-0.70
2019-01-10T00:11:13.045Z,-0.70
2019-01-10T00:13:42.239Z,-0.70
2019-01-10T00:16:11.820Z,-0.70
2019-01-10T00:18:41.058Z,-0.80
2019-01-10T00:21:10.247Z,-0.80
2019-01-10T00:23:40.085Z,-0.80
2019-01-10T00:26:09.572Z,-0.80
2019-01-10T00:28:38.735Z,-0.90
2019-01-10T00:31:08.298Z,-0.90
2019-01-10T00:33:39.490Z,-0.90
2019-01-10T00:36:09.092Z,-0.90
2019-01-10T00:38:38.083Z,-0.90
2019-01-10T00:41:07.520Z,-0.90
2019-01-10T00:43:36.900Z,-0.90
2019-01-10T00:46:07.007Z,-0.90
2019-01-10T00:48:36.213Z,-0.90
2019-01-10T00:51:05.551Z,-0.90
2019-01-10T00:53:34.867Z,-0.90
2019-01-10T00:56:04.651Z,-0.90
2019-01-10T00:58:33.834Z,-0.90
2019-01-10T01:01:03.400Z,-0.90
2019-01-10T01:03:35.023Z,-0.90
2019-01-10T01:06:04.385Z,-0.90
2019-01-10T01:08:33.495Z,-0.90
2019-01-10T01:11:02.883Z,-1.00
2019-01-10T01:13:32.184Z,-1.00
2019-01-10T01:16:01.171Z,-1.00
2019-01-10T01:18:31.713Z,-0.90
2019-01-10T01:21:01.110Z,-0.90
2019-01-10T01:23:31.410Z,-0.90
2019-01-10T01:26:00.402Z,-0.90
2019-01-10T01:28:31.310Z,-0.80
2019-01-10T01:31:01.121Z,-0.80
2019-01-10T01:33:30.619Z,-0.80
2019-01-10T01:36:00.277Z,-0.80
2019-01-10T01:38:29.492Z,-0.90
2019-01-10T01:40:59.506Z,-0.90
2019-01-10T01:43:28.599Z,-0.90
2019-01-10T01:45:59.254Z,-0.80
2019-01-10T01:48:28.456Z,-0.90
2019-01-10T01:50:57.488Z,-0.80
2019-01-10T01:53:27.139Z,-0.80
2019-01-10T01:55:56.298Z,-0.80
2019-01-10T01:58:25.308Z,-0.80
2019-01-10T02:00:54.399Z,-0.80
2019-01-10T02:03:23.487Z,-0.90
2019-01-10T02:05:52.982Z,-0.90
2019-01-10T02:08:21.964Z,-0.90
2019-01-10T02:10:51.528Z,-0.90
2019-01-10T02:13:21.880Z,-1.00
2019-01-10T02:15:51.096Z,-1.00
2019-01-10T02:18:20.210Z,-1.00
2019-01-10T02:20:49.739Z,-1.00
2019-01-10T02:23:19.264Z,-1.00
2019-01-10T02:25:48.642Z,-1.00
2019-01-10T02:28:17.803Z,-1.00
2019-01-10T02:30:47.009Z,-1.00
2019-01-10T02:33:16.503Z,-1.00
2019-01-10T02:35:46.072Z,-1.10
2019-01-10T02:38:15.303Z,-1.10
2019-01-10T02:40:44.714Z,-1.10
2019-01-10T02:43:14.241Z,-1.10
2019-01-10T02:45:43.855Z,-1.10
2019-01-10T02:48:13.206Z,-1.00
2019-01-10T02:50:42.654Z,-1.00
2019-01-10T02:53:11.853Z,-0.90
2019-01-10T02:55:41.806Z,-1.00
2019-01-10T02:58:10.821Z,-1.00
2019-01-10T03:00:40.251Z,-1.00
2019-01-10T03:03:09.389Z,-1.00
2019-01-10T03:05:38.873Z,-1.10
2019-01-10T03:08:08.044Z,-1.10
2019-01-10T03:10:37.361Z,-1.10
2019-01-10T03:13:06.394Z,-1.10
2019-01-10T03:15:35.616Z,-1.00
2019-01-10T03:18:55.082Z,-1.10
2019-01-10T03:21:24.243Z,-1.00
2019-01-10T03:23:53.679Z,-1.00
2019-01-10T03:26:22.824Z,-1.00
2019-01-10T03:28:52.096Z,-1.00
2019-01-10T03:31:21.352Z,-1.00
2019-01-10T03:33:50.485Z,-1.00
2019-01-10T03:36:21.411Z,-1.10
2019-01-10T03:38:51.923Z,-1.10
2019-01-10T03:41:21.088Z,-1.10
2019-01-10T03:43:50.368Z,-1.00
2019-01-10T03:46:19.864Z,-1.00
2019-01-10T03:48:50.332Z,-1.00
2019-01-10T03:51:19.737Z,-1.00
2019-01-10T03:53:49.247Z,-1.00
2019-01-10T03:56:18.243Z,-1.00
2019-01-10T03:58:49.689Z,-1.00
2019-01-10T04:01:18.849Z,-1.00
2019-01-10T04:03:49.505Z,-1.00
2019-01-10T04:06:19.165Z,-1.00
2019-01-10T04:08:48.610Z,-1.00
2019-01-10T04:11:17.649Z,-1.00
2019-01-10T04:13:57.098Z,-1.10
2019-01-10T04:16:19.155Z,-1.10
2019-01-10T04:18:48.596Z,-1.10
2019-01-10T04:21:18.889Z,-1.00
2019-01-10T04:23:48.196Z,-1.10
2019-01-10T04:26:18.409Z,-1.10
2019-01-10T04:28:49.548Z,-1.10
2019-01-10T04:31:19.235Z,-1.10
2019-01-10T04:33:51.200Z,-1.10
2019-01-10T04:36:20.347Z,-1.00
2019-01-10T04:38:50.018Z,-1.10
2019-01-10T04:41:20.612Z,-1.00
2019-01-10T04:43:53.525Z,-1.00
2019-01-10T04:46:22.668Z,-1.00
2019-01-10T04:48:53.700Z,-1.10
2019-01-10T04:51:22.879Z,-1.00
2019-01-10T04:53:54.814Z,-1.10
2019-01-10T04:56:23.827Z,-1.00
2019-01-10T04:58:54.350Z,-1.10
2019-01-10T05:01:23.377Z,-1.00
2019-01-10T05:03:52.880Z,-1.10
2019-01-10T05:06:22.075Z,-1.00
2019-01-10T05:08:51.262Z,-1.00
2019-01-10T05:11:20.458Z,-1.00
2019-01-10T05:13:49.615Z,-0.90
2019-01-10T05:16:18.641Z,-0.90
2019-01-10T05:18:47.780Z,-1.00
2019-01-10T05:21:16.847Z,-0.90
2019-01-10T05:23:46.390Z,-0.90
2019-01-10T05:26:15.403Z,-1.00
2019-01-10T05:28:44.247Z,-1.00
2019-01-10T05:31:13.244Z,-0.90
2019-01-10T05:33:44.263Z,-0.90
2019-01-10T05:36:13.523Z,-0.90
2019-01-10T05:38:42.455Z,-0.90
2019-01-10T05:41:11.388Z,-0.90
2019-01-10T05:43:40.318Z,-0.90
2019-01-10T05:46:10.609Z,-0.90
2019-01-10T05:48:39.960Z,-0.90
2019-01-10T05:51:09.597Z,-0.80
2019-01-10T05:53:38.824Z,-0.80
2019-01-10T05:56:15.217Z,-0.80
2019-01-10T05:58:39.773Z,-0.80
2019-01-10T06:01:09.451Z,-0.80
2019-01-10T06:03:38.601Z,-0.90
2019-01-10T06:06:07.788Z,-0.80
2019-01-10T06:08:38.067Z,-0.80
2019-01-10T06:11:07.167Z,-0.80
2019-01-10T06:13:36.379Z,-0.70
2019-01-10T06:18:42.836Z,-0.80
2019-01-10T06:21:12.047Z,-0.80
2019-01-10T06:23:41.392Z,-0.70
2019-01-10T06:26:10.758Z,-0.70
2019-01-10T06:28:40.522Z,-0.70
2019-01-10T06:31:09.791Z,-0.70
2019-01-10T06:33:40.569Z,-0.70
2019-01-10T06:36:09.692Z,-0.70
2019-01-10T06:38:39.381Z,-0.70
2019-01-10T06:41:09.997Z,-0.70
2019-01-10T06:43:41.007Z,-0.70
2019-01-10T06:46:09.995Z,-0.70
2019-01-10T06:48:38.843Z,-0.70
2019-01-10T06:51:09.604Z,-0.70
2019-01-10T06:53:39.152Z,-0.70
2019-01-10T06:56:08.223Z,-0.70
2019-01-10T06:58:37.247Z,-0.70
2019-01-10T07:01:06.788Z,-0.60
2019-01-10T07:03:36.383Z,-0.60
2019-01-10T07:06:05.518Z,-0.60
2019-01-10T07:08:34.595Z,-0.60
2019-01-10T07:11:03.515Z,-0.60
2019-01-10T07:13:32.718Z,-0.60
2019-01-10T07:16:01.626Z,-0.60
2019-01-10T07:18:30.640Z,-0.50
2019-01-10T07:20:59.827Z,-0.60
2019-01-10T07:23:28.939Z,-0.60
2019-01-10T07:25:57.859Z,-0.60
2019-01-10T07:28:27.807Z,-0.60
2019-01-10T07:30:58.643Z,-0.60
2019-01-10T07:33:27.706Z,-0.60
2019-01-10T07:35:58.156Z,-0.60
2019-01-10T07:38:27.575Z,-0.50
2019-01-10T07:40:56.740Z,-0.50
2019-01-10T07:43:27.287Z,-0.50
2019-01-10T07:45:58.129Z,-0.40
2019-01-10T07:48:27.432Z,-0.40
2019-01-10T07:50:56.527Z,-0.50
2019-01-10T07:53:25.827Z,-0.40
2019-01-10T07:55:54.767Z,-0.40
2019-01-10T07:58:23.907Z,-0.40
2019-01-10T08:00:53.985Z,-0.40
2019-01-10T08:03:23.161Z,-0.40
2019-01-10T08:05:52.759Z,-0.40
2019-01-10T08:08:21.705Z,-0.40
2019-01-10T08:10:50.797Z,-0.40
2019-01-10T08:13:19.856Z,-0.30
2019-01-10T08:15:48.851Z,-0.30
2019-01-10T08:18:18.097Z,-0.30
2019-01-10T08:20:47.144Z,-0.30
2019-01-10T08:23:16.648Z,-0.30
2019-01-10T08:25:45.684Z,-0.30
2019-01-10T08:28:14.718Z,-0.30
2019-01-10T08:30:43.759Z,-0.30
2019-01-10T08:33:12.988Z,-0.20
2019-01-10T08:35:42.114Z,-0.20
2019-01-10T08:38:11.247Z,-0.20
2019-01-10T08:40:40.306Z,-0.20
2019-01-10T08:43:11.722Z,-0.20
2019-01-10T08:45:40.341Z,-0.10
2019-01-10T08:48:09.436Z,0.00
2019-01-10T08:50:38.437Z,0.00
2019-01-10T08:53:07.499Z,0.10
2019-01-10T08:55:36.859Z,0.20
2019-01-10T08:58:06.000Z,0.30
2019-01-10T09:00:34.930Z,0.50
2019-01-10T09:03:04.012Z,0.60
2019-01-10T09:05:33.301Z,0.70
2019-01-10T09:08:02.486Z,0.80
2019-01-10T09:10:35.626Z,0.80
2019-01-10T09:13:06.675Z,0.80
2019-01-10T09:15:35.745Z,0.80
2019-01-10T09:18:05.788Z,0.70
2019-01-10T09:20:34.708Z,0.80
2019-01-10T09:23:03.939Z,0.80
2019-01-10T09:25:33.140Z,0.70
2019-01-10T09:28:02.096Z,0.60
2019-01-10T09:30:31.181Z,0.60
2019-01-10T09:33:00.306Z,0.50
2019-01-10T09:35:29.243Z,0.50
2019-01-10T09:37:58.372Z,0.50
2019-01-10T09:40:27.724Z,0.50
2019-01-10T09:42:56.900Z,0.50
2019-01-10T09:45:26.561Z,0.50
2019-01-10T09:47:55.687Z,0.50
2019-01-10T09:50:25.107Z,0.60
2019-01-10T09:52:55.532Z,0.60
2019-01-10T09:55:24.916Z,0.80
2019-01-10T09:57:53.965Z,1.00
2019-01-10T10:00:25.949Z,1.10
2019-01-10T10:02:55.252Z,1.20
2019-01-10T10:05:24.387Z,1.30
2019-01-10T10:07:53.982Z,1.30
2019-01-10T10:10:23.202Z,1.20
2019-01-10T10:12:52.322Z,1.30
2019-01-10T10:15:22.220Z,1.20
2019-01-10T10:17:51.651Z,1.10
2019-01-10T10:20:22.756Z,1.00
2019-01-10T10:22:52.232Z,1.10
2019-01-10T10:25:21.293Z,1.20
2019-01-10T10:27:50.526Z,1.10
2019-01-10T10:30:20.821Z,1.10
2019-01-10T10:32:51.102Z,0.90
2019-01-10T10:35:20.952Z,0.90
2019-01-10T10:37:51.367Z,0.80
2019-01-10T10:40:22.148Z,0.90
2019-01-10T10:42:52.223Z,0.90
2019-01-10T10:45:22.169Z,1.20
2019-01-10T10:47:51.412Z,1.40
2019-01-10T10:50:26.052Z,1.40
2019-01-10T10:52:55.574Z,1.40
2019-01-10T10:55:24.694Z,1.30
2019-01-10T10:57:53.894Z,1.10
2019-01-10T11:00:30.234Z,1.00
2019-01-10T11:02:59.741Z,1.00
2019-01-10T11:05:29.584Z,0.90
2019-01-10T11:07:58.611Z,0.80
2019-01-10T11:10:27.754Z,0.80
2019-01-10T11:12:56.971Z,0.70
2019-01-10T11:15:26.081Z,0.70
2019-01-10T11:17:55.263Z,0.70
2019-01-10T11:20:24.645Z,0.70
2019-01-10T11:22:54.131Z,0.70
2019-01-10T11:25:25.415Z,0.60
2019-01-10T11:27:54.704Z,0.70
2019-01-10T11:30:23.860Z,0.60
2019-01-10T11:32:53.880Z,0.60
2019-01-10T11:35:22.986Z,0.60
2019-01-10T11:37:52.892Z,0.70
2019-01-10T11:40:22.771Z,0.80
2019-01-10T11:42:52.194Z,0.90
2019-01-10T11:45:23.671Z,1.10
2019-01-10T11:47:52.676Z,1.20
2019-01-10T11:50:21.684Z,1.10
2019-01-10T11:52:50.823Z,0.90
2019-01-10T11:55:20.056Z,0.80
2019-01-10T11:57:49.185Z,0.70
2019-01-10T12:00:21.400Z,0.70
2019-01-10T12:02:50.505Z,0.70
2019-01-10T12:05:19.564Z,0.80
2019-01-10T12:07:49.086Z,0.90
2019-01-10T12:10:18.071Z,0.80
2019-01-10T12:12:47.071Z,0.80
2019-01-10T12:15:16.511Z,0.70
2019-01-10T12:17:45.519Z,0.60
2019-01-10T12:20:15.299Z,0.50
2019-01-10T12:22:44.614Z,0.50
2019-01-10T12:25:14.728Z,0.70
2019-01-10T12:27:43.779Z,0.90
2019-01-10T12:30:18.871Z,1.00
2019-01-10T12:32:47.947Z,1.00
2019-01-10T12:35:17.034Z,0.80
2019-01-10T12:37:46.188Z,0.80
2019-01-10T12:40:15.404Z,0.70
2019-01-10T12:42:44.735Z,0.70
2019-01-10T12:45:14.952Z,0.60
2019-01-10T12:47:44.136Z,0.60
2019-01-10T12:50:19.394Z,0.60
2019-01-10T12:52:48.551Z,0.70
2019-01-10T12:55:17.713Z,0.70
2019-01-10T12:57:47.001Z,0.70
2019-01-10T13:00:18.126Z,0.70
2019-01-10T13:02:47.150Z,0.70
2019-01-10T13:05:16.505Z,0.60
2019-01-10T13:07:45.605Z,0.60
2019-01-10T13:10:17.028Z,0.60
2019-01-10T13:12:46.352Z,0.60
2019-01-10T13:15:21.608Z,0.60
2019-01-10T13:17:50.847Z,0.60
2019-01-10T13:20:19.931Z,0.50
2019-01-10T13:22:49.042Z,0.60
2019-01-10T13:25:19.191Z,0.50
2019-01-10T13:27:48.917Z,0.40
2019-01-10T13:30:20.260Z,0.50
2019-01-10T13:32:49.586Z,0.40
2019-01-10T13:35:18.781Z,0.40
2019-01-10T13:37:48.355Z,0.40
2019-01-10T13:40:18.028Z,0.30
2019-01-10T13:42:47.227Z,0.30
2019-01-10T13:45:17.071Z,0.30
2019-01-10T13:47:48.540Z,0.30
2019-01-10T13:50:22.983Z,0.40
2019-01-10T13:52:52.467Z,0.40
2019-01-10T13:55:21.791Z,0.40
2019-01-10T13:57:50.783Z,0.50
2019-01-10T14:00:27.942Z,0.50
2019-01-10T14:02:56.855Z,0.50
2019-01-10T14:05:26.044Z,0.40
2019-01-10T14:07:56.013Z,0.30
2019-01-10T14:10:25.119Z,0.30
2019-01-10T14:12:54.284Z,0.20
2019-01-10T14:15:29.076Z,0.20
2019-01-10T14:17:58.239Z,0.20
2019-01-10T14:20:27.408Z,0.10
2019-01-10T14:22:56.626Z,0.10
2019-01-10T14:25:26.123Z,0.10
2019-01-10T14:27:59.549Z,0.20
2019-01-10T14:30:28.884Z,0.10
2019-01-10T14:32:58.010Z,0.10
2019-01-10T14:35:27.527Z,0.10
2019-01-10T14:37:56.817Z,0.10
2019-01-10T14:40:26.998Z,0.10
2019-01-10T14:42:56.255Z,0.00
2019-01-10T14:45:25.432Z,0.00
2019-01-10T14:47:54.641Z,0.00
2019-01-10T14:50:24.104Z,-0.10
2019-01-10T14:52:53.364Z,-0.10
2019-01-10T14:55:22.401Z,-0.10
2019-01-10T14:57:51.545Z,-0.10
2019-01-10T15:00:22.354Z,0.00
2019-01-10T15:02:51.449Z,0.00
2019-01-10T15:05:21.347Z,0.00
2019-01-10T15:07:52.613Z,0.00
2019-01-10T15:10:21.843Z,0.00
2019-01-10T15:12:50.913Z,-0.10
2019-01-10T15:15:22.239Z,-0.10
2019-01-10T15:17:51.362Z,-0.20
2019-01-10T15:20:23.454Z,-0.20
2019-01-10T15:22:52.736Z,-0.20
2019-01-10T15:25:22.034Z,-0.30
2019-01-10T15:27:51.142Z,-0.20
2019-01-10T15:30:22.112Z,-0.30
2019-01-10T15:32:51.243Z,-0.30
2019-01-10T15:35:20.715Z,-0.30
2019-01-10T15:37:50.295Z,-0.30
2019-01-10T15:40:23.186Z,-0.40
2019-01-10T15:42:52.175Z,-0.40
2019-01-10T15:45:21.584Z,-0.40
2019-01-10T15:47:50.751Z,-0.30
2019-01-10T15:50:20.268Z,-0.40
2019-01-10T15:52:49.971Z,-0.40
2019-01-10T15:55:19.645Z,-0.40
2019-01-10T15:57:48.881Z,-0.40
2019-01-10T16:00:20.120Z,-0.40
2019-01-10T16:02:49.107Z,-0.40
2019-01-10T16:05:18.370Z,-0.40
2019-01-10T16:07:48.016Z,-0.40
2019-01-10T16:10:18.524Z,-0.40
2019-01-10T16:12:47.723Z,-0.40
2019-01-10T16:15:18.788Z,-0.40
2019-01-10T16:17:48.519Z,-0.50
2019-01-10T16:20:19.049Z,-0.40
2019-01-10T16:22:48.290Z,-0.50
2019-01-10T16:25:19.684Z,-0.50
2019-01-10T16:27:49.237Z,-0.50
2019-01-10T16:30:23.770Z,-0.60
2019-01-10T16:32:53.330Z,-0.50
2019-01-10T16:35:22.879Z,-0.50
2019-01-10T16:37:51.984Z,-0.60
2019-01-10T16:40:21.544Z,-0.60
2019-01-10T16:42:50.898Z,-0.60
2019-01-10T16:45:30.870Z,-0.70
2019-01-10T16:48:00.449Z,-0.70
2019-01-10T16:50:29.805Z,-0.70
2019-01-10T16:52:59.007Z,-0.70
2019-01-10T16:55:28.414Z,-0.70
2019-01-10T16:57:57.773Z,-0.70
2019-01-10T17:00:36.583Z,-0.70
2019-01-10T17:03:05.726Z,-0.70
2019-01-10T17:05:35.172Z,-0.80
2019-01-10T17:08:05.097Z,-0.80
2019-01-10T17:10:34.590Z,-0.70
2019-01-10T17:13:03.787Z,-0.80
2019-01-10T17:15:33.191Z,-0.80
2019-01-10T17:18:02.926Z,-0.80
2019-01-10T17:20:32.140Z,-0.80
2019-01-10T17:23:02.397Z,-0.80
2019-01-10T17:25:31.782Z,-0.80
2019-01-10T17:28:00.938Z,-0.80
2019-01-10T17:30:31.139Z,-0.80
2019-01-10T17:33:00.839Z,-0.80
2019-01-10T17:35:31.793Z,-0.90
2019-01-10T17:38:01.830Z,-0.90
2019-01-10T17:40:31.393Z,-0.80
2019-01-10T17:43:01.218Z,-0.90
2019-01-10T17:45:32.712Z,-0.90
2019-01-10T17:48:02.357Z,-0.90
2019-01-10T17:50:31.768Z,-0.90
2019-01-10T17:53:00.934Z,-0.90
2019-01-10T17:55:29.915Z,-0.90
2019-01-10T17:57:59.663Z,-1.00
2019-01-10T18:00:30.210Z,-1.10
2019-01-10T18:02:59.359Z,-1.00
2019-01-10T18:05:29.053Z,-1.00
2019-01-10T18:07:58.853Z,-1.00
2019-01-10T18:10:28.340Z,-1.00
2019-01-10T18:12:57.686Z,-0.90
2019-01-10T18:15:27.472Z,-0.90
2019-01-10T18:17:56.505Z,-0.90
2019-01-10T18:20:29.018Z,-0.90
2019-01-10T18:22:58.737Z,-0.80
2019-01-10T18:25:27.979Z,-0.80
2019-01-10T18:27:57.187Z,-0.80
2019-01-10T18:30:26.500Z,-0.80
2019-01-10T18:32:55.795Z,-0.90
2019-01-10T18:35:26.392Z,-0.80
2019-01-10T18:37:56.361Z,-0.90
2019-01-10T18:40:25.701Z,-0.90
2019-01-10T18:42:55.029Z,-0.90
2019-01-10T18:45:29.583Z,-0.80
2019-01-10T18:47:58.786Z,-0.80
2019-01-10T18:50:28.132Z,-0.80
2019-01-10T18:52:57.496Z,-0.90
2019-01-10T18:55:26.558Z,-0.90
2019-01-10T18:57:55.642Z,-0.90
2019-01-10T19:00:29.597Z,-0.90
2019-01-10T19:02:59.894Z,-1.00
2019-01-10T19:05:30.564Z,-1.00
2019-01-10T19:08:00.217Z,-1.00
2019-01-10T19:10:29.600Z,-1.00
2019-01-10T19:12:59.129Z,-1.10
2019-01-10T19:15:28.976Z,-1.10
2019-01-10T19:18:03.328Z,-1.10
2019-01-10T19:20:29.891Z,-1.00
2019-01-10T19:23:02.726Z,-1.00
2019-01-10T19:25:32.277Z,-1.00
2019-01-10T19:28:01.334Z,-1.00
2019-01-10T19:30:36.106Z,-1.00
2019-01-10T19:33:06.209Z,-1.00
2019-01-10T19:35:35.346Z,-1.00
2019-01-10T19:38:05.001Z,-1.00
2019-01-10T19:40:34.506Z,-1.00
2019-01-10T19:43:03.743Z,-1.00
2019-01-10T19:45:33.367Z,-1.10
2019-01-10T19:48:03.021Z,-1.10
2019-01-10T19:50:35.791Z,-1.00
2019-01-10T19:53:05.196Z,-1.10
2019-01-10T19:55:34.724Z,-1.10
2019-01-10T19:58:04.471Z,-1.00
2019-01-10T20:00:45.811Z,-1.00
2019-01-10T20:03:15.195Z,-1.10
2019-01-10T20:05:45.293Z,-1.10
2019-01-10T20:08:14.629Z,-1.00
2019-01-10T20:10:43.672Z,-1.00
2019-01-10T20:13:12.944Z,-1.10
2019-01-10T20:15:42.383Z,-1.10
2019-01-10T20:18:16.224Z,-1.10
2019-01-10T20:20:43.369Z,-1.10
2019-01-10T20:23:15.574Z,-1.20
2019-01-10T20:25:44.926Z,-1.20
2019-01-10T20:28:13.924Z,-1.10
2019-01-10T20:30:43.143Z,-1.20
2019-01-10T20:33:12.494Z,-1.20
2019-01-10T20:35:41.507Z,-1.20
2019-01-10T20:38:11.132Z,-1.20
2019-01-10T20:40:40.144Z,-1.20
2019-01-10T20:43:46.866Z,-1.10
2019-01-10T20:46:16.513Z,-1.20
2019-01-10T20:48:45.651Z,-1.10
2019-01-10T20:51:15.551Z,-1.10
2019-01-10T20:53:45.830Z,-1.10
2019-01-10T20:56:15.757Z,-1.10
2019-01-10T20:58:44.994Z,-1.10
2019-01-10T21:01:14.239Z,-1.10
2019-01-10T21:03:43.329Z,-1.10
2019-01-10T21:06:12.331Z,-1.10
2019-01-10T21:08:42.119Z,-1.20
2019-01-10T21:11:11.599Z,-1.20
2019-01-10T21:13:40.780Z,-1.20
2019-01-10T21:16:10.012Z,-1.20
2019-01-10T21:18:39.268Z,-1.20
2019-01-10T21:21:08.619Z,-1.20
2019-01-10T21:23:38.208Z,-1.10
2019-01-10T21:26:07.410Z,-1.20
2019-01-10T21:28:36.578Z,-1.20
2019-01-10T21:31:05.959Z,-1.20
2019-01-10T21:33:35.260Z,-1.20
2019-01-10T21:36:06.470Z,-1.20
2019-01-10T21:38:35.790Z,-1.20
2019-01-10T21:41:05.260Z,-1.20
2019-01-10T21:43:36.839Z,-1.20
2019-01-10T21:46:06.307Z,-1.30
2019-01-10T21:48:37.196Z,-1.20
2019-01-10T21:51:06.907Z,-1.20
2019-01-10T21:53:35.839Z,-1.30
2019-01-10T21:56:07.185Z,-1.30
2019-01-10T21:58:36.114Z,-1.30
2019-01-10T22:01:05.538Z,-1.30
2019-01-10T22:03:34.999Z,-1.30
2019-01-10T22:06:05.412Z,-1.30
2019-01-10T22:08:34.664Z,-1.30
2019-01-10T22:11:03.791Z,-1.30
2019-01-10T22:13:33.221Z,-1.20
2019-01-10T22:16:02.484Z,-1.20
2019-01-10T22:18:31.851Z,-1.20
2019-01-10T22:21:01.223Z,-1.20
2019-01-10T22:23:30.334Z,-1.30
2019-01-10T22:26:00.499Z,-1.30
2019-01-10T22:28:31.940Z,-1.30
2019-01-10T22:31:03.876Z,-1.30
2019-01-10T22:33:32.895Z,-1.30
2019-01-10T22:36:02.251Z,-1.30
2019-01-10T22:38:31.539Z,-1.40
2019-01-10T22:41:00.553Z,-1.40
2019-01-10T22:43:29.748Z,-1.40
2019-01-10T22:45:58.754Z,-1.40
2019-01-10T22:48:28.224Z,-1.30
2019-01-10T22:50:57.780Z,-1.30
2019-01-10T22:53:26.888Z,-1.30
2019-01-10T22:55:58.165Z,-1.30
2019-01-10T22:58:27.262Z,-1.30
2019-01-10T23:01:10.151Z,-1.30
2019-01-10T23:03:41.429Z,-1.40
2019-01-10T23:06:10.920Z,-1.40
2019-01-10T23:08:44.455Z,-1.40
2019-01-10T23:11:27.083Z,-1.40
2019-01-10T23:14:00.964Z,-1.40
2019-01-10T23:16:32.523Z,-1.40
2019-01-10T23:19:02.067Z,-1.50
2019-01-10T23:21:33.779Z,-1.50
2019-01-10T23:24:05.896Z,-1.50
2019-01-10T23:26:35.254Z,-1.50
2019-01-10T23:29:04.556Z,-1.50
2019-01-10T23:31:33.737Z,-1.50
2019-01-10T23:34:08.275Z,-1.50
2019-01-10T23:36:37.706Z,-1.50
2019-01-10T23:39:20.388Z,-1.50
2019-01-10T23:41:50.388Z,-1.50
2019-01-10T23:44:19.730Z,-1.50
2019-01-10T23:46:49.624Z,-1.60
2019-01-10T23:49:18.883Z,-1.50
2019-01-10T23:51:48.297Z,-1.60
2019-01-10T23:54:18.233Z,-1.60
2019-01-10T23:56:47.593Z,-1.60
2019-01-10T23:59:16.902Z,-1.60
